createdAt,value
2022-10-01T12:06:54.260Z,0.90
2022-10-01T12:17:33.971Z,0.47
2022-10-01T14:34:29.803Z,0.95
2022-10-01T14:44:51.309Z,0.82
2022-10-01T15:05:37.181Z,0.85
2022-10-01T15:15:59.664Z,1.02
2022-10-01T15:26:29.850Z,1.48
2022-10-01T15:36:52.267Z,1.17
2022-10-01T15:47:19.728Z,1.13
2022-10-01T15:57:42.190Z,1.10
2022-10-01T16:08:03.924Z,1.17
2022-10-01T16:18:25.454Z,1.52
2022-10-01T16:28:47.140Z,1.30
2022-10-01T16:39:08.830Z,1.13
2022-10-01T16:49:30.298Z,1.17
2022-10-01T16:59:51.862Z,1.10
2022-10-01T17:10:14.125Z,1.30
2022-10-01T17:20:37.577Z,1.25
2022-10-01T17:30:59.036Z,1.17
2022-10-01T17:41:20.568Z,1.23
2022-10-01T17:51:42.032Z,1.63
2022-10-01T18:02:18.625Z,2.20
2022-10-01T18:12:45.350Z,1.90
2022-10-01T18:23:07.314Z,1.52
2022-10-01T18:33:29.272Z,1.73
2022-10-01T18:43:50.815Z,2.13
2022-10-01T18:54:24.936Z,1.58
2022-10-01T19:04:49.519Z,2.05
2022-10-01T19:15:40.219Z,2.20
2022-10-01T19:26:22.538Z,2.03
2022-10-01T19:37:06.950Z,2.50
2022-10-01T19:47:34.533Z,2.70
2022-10-01T19:57:56.109Z,1.95
2022-10-01T20:08:40.578Z,2.35
2022-10-01T20:19:23.789Z,2.35
2022-10-01T20:30:04.852Z,2.20
2022-10-01T20:40:49.468Z,2.10
2022-10-01T20:51:40.167Z,2.42
2022-10-01T21:02:13.383Z,2.07
2022-10-01T21:12:42.455Z,2.17
2022-10-01T21:23:16.441Z,2.17
2022-10-01T21:33:54.062Z,2.35
2022-10-01T21:44:34.109Z,2.03
2022-10-01T21:55:14.354Z,2.38
2022-10-01T22:05:45.039Z,2.15
2022-10-01T22:16:10.139Z,1.95
2022-10-01T22:26:34.209Z,1.60
2022-10-01T22:37:01.877Z,2.00
2022-10-01T22:47:55.250Z,1.75
2022-10-01T22:58:16.695Z,1.45
2022-10-01T23:08:53.004Z,1.40
2022-10-01T23:20:01.064Z,1.60
2022-10-01T23:30:22.835Z,1.83
2022-10-01T23:51:17.538Z,1.50
